Disclaimer

Please do not use the information listed here in-flight or in-navigation, as they are not provided to us by the airports but are provided by volunteers, so they might be outdated.

Search


Regions


Airport information page

No radio frequency information is available.

Airport informations:
Latitude: 45° 53' 59.90" N
Longitude: 015° 31' 48.70" E
Elevation: 510 feet - 155 meters
Operating hours: N/A
Operating agency: Military
Timezone: N/A
Fuel: N/A

Runway information:
09/27 - 7980 x 150 feet< - >2432 x 46 meters

Recent METARs:
LJCE 201400Z 21002KT 5000 BR FEW003 OVC013 01/01 Q1011 RMK GRN
LJCE 201430Z AUTO 00000KT 9999 OVC010/// 01/00 Q1011
LJCE 201500Z AUTO VRB01KT 5000 BR OVC010/// 01/00 Q1011

Airport on the map: